Terminal Aerodrome Forecast
Issued by NWS

Home | Current Version | Previous Version | Text Only | Print | Product List | Glossary On
Versions: 1 2 3 4 5 6 7 8 9 10 11 12
000
FTUS42 TJSJ 020500 RRA
TAFJPS
TAF
TJPS 020543Z 0206/0306 05005KT P6SM FEW030
      TEMPO 0209/0212 08015G25KT 6SM -RA BR BKN030
     FM021200 07020G35KT 2SM RA BR VCTS OVC015CB
     FM021800 14025G43KT P6SM VCTS BKN030CB
     FM030300 12015G21KT P6SM VCSH BKN040=

USA.gov is the U.S. government's official web portal to all federal, state and local government web resources and services.